IGO279V VAAH-VABB
Flight info
| Callsign | IGO279V |
|---|---|
| Flight time | 0h 49m |
| Altitude | 35000 |
| Route | BVR1A BVR R458 BOFIN POKON2A |
| Aircraft | A21N/M-SDE2E3FGHIRWXY/LB1 |
Departure
| Time | 2026-04-26 11:46 |
|---|---|
| Airport | Sardar Vallabh Patel International Airport (VAAH) |
Arrival
| Time | 2026-04-26 12:36 |
|---|---|
| Airport | Chhatrapati Shivaji Maharaj International Airport (VABB) |
| Time | Latitude | Longitude | Altitude | Speed | Heading |
|---|---|---|---|---|---|
| 2026-04-26 11:07 | 23.07265 | 72.61742 | 185 ft | 0 kts | 45° |
| 2026-04-26 11:16 | 23.07258 | 72.61735 | 185 ft | 2 kts | 45° |
| 2026-04-26 11:17 | 23.07248 | 72.61724 | 185 ft | 2 kts | 44° |
| 2026-04-26 11:17 | 23.07238 | 72.61711 | 185 ft | 2 kts | 64° |
| 2026-04-26 11:17 | 23.07233 | 72.61696 | 185 ft | 2 kts | 78° |
| 2026-04-26 11:17 | 23.07232 | 72.61680 | 186 ft | 2 kts | 95° |
| 2026-04-26 11:18 | 23.07235 | 72.61663 | 186 ft | 2 kts | 110° |
| 2026-04-26 11:18 | 23.07241 | 72.61649 | 186 ft | 2 kts | 126° |
| 2026-04-26 11:18 | 23.07246 | 72.61643 | 186 ft | 1 kts | 135° |
| 2026-04-26 11:18 | 23.07249 | 72.61639 | 186 ft | 0 kts | 133° |
| 2026-04-26 11:26 | 23.07246 | 72.61643 | 185 ft | 0 kts | 137° |
| 2026-04-26 11:26 | 23.07242 | 72.61647 | 186 ft | 1 kts | 134° |
| 2026-04-26 11:28 | 23.07241 | 72.61648 | 186 ft | 0 kts | 134° |
| 2026-04-26 11:28 | 23.07230 | 72.61661 | 185 ft | 3 kts | 132° |
| 2026-04-26 11:28 | 23.07204 | 72.61692 | 186 ft | 7 kts | 133° |
| 2026-04-26 11:29 | 23.07163 | 72.61739 | 186 ft | 10 kts | 134° |
| 2026-04-26 11:29 | 23.07110 | 72.61800 | 187 ft | 11 kts | 133° |
| 2026-04-26 11:29 | 23.07050 | 72.61869 | 188 ft | 13 kts | 134° |
| 2026-04-26 11:29 | 23.06981 | 72.61948 | 188 ft | 15 kts | 133° |
| 2026-04-26 11:30 | 23.06913 | 72.62028 | 188 ft | 10 kts | 117° |
| 2026-04-26 11:30 | 23.06926 | 72.62082 | 189 ft | 12 kts | 63° |
| 2026-04-26 11:30 | 23.06883 | 72.62180 | 188 ft | 0 kts | 134° |
| 2026-04-26 11:30 | 23.06878 | 72.62185 | 188 ft | 2 kts | 134° |
| 2026-04-26 11:31 | 23.06857 | 72.62209 | 188 ft | 5 kts | 131° |
| 2026-04-26 11:31 | 23.06857 | 72.62256 | 188 ft | 8 kts | 60° |
| 2026-04-26 11:31 | 23.06900 | 72.62313 | 189 ft | 11 kts | 44° |
| 2026-04-26 11:31 | 23.06969 | 72.62387 | 189 ft | 16 kts | 45° |
| 2026-04-26 11:32 | 23.07065 | 72.62489 | 189 ft | 21 kts | 45° |
| 2026-04-26 11:32 | 23.07182 | 72.62615 | 186 ft | 26 kts | 45° |
| 2026-04-26 11:32 | 23.07290 | 72.62731 | 186 ft | 12 kts | 44° |
| 2026-04-26 11:32 | 23.07345 | 72.62788 | 186 ft | 0 kts | 44° |
| 2026-04-26 11:35 | 23.07350 | 72.62794 | 186 ft | 3 kts | 44° |
| 2026-04-26 11:35 | 23.07383 | 72.62829 | 186 ft | 9 kts | 44° |
| 2026-04-26 11:35 | 23.07445 | 72.62894 | 186 ft | 14 kts | 45° |
| 2026-04-26 11:36 | 23.07530 | 72.62987 | 186 ft | 19 kts | 45° |
| 2026-04-26 11:36 | 23.07637 | 72.63101 | 186 ft | 23 kts | 46° |
| 2026-04-26 11:36 | 23.07760 | 72.63235 | 187 ft | 26 kts | 44° |
| 2026-04-26 11:36 | 23.07881 | 72.63372 | 189 ft | 12 kts | 54° |
| 2026-04-26 11:37 | 23.07888 | 72.63384 | 189 ft | 0 kts | 55° |
| 2026-04-26 11:37 | 23.07890 | 72.63390 | 189 ft | 2 kts | 88° |
| 2026-04-26 11:37 | 23.07875 | 72.63429 | 189 ft | 8 kts | 118° |
| 2026-04-26 11:37 | 23.07867 | 72.63443 | 189 ft | 0 kts | 135° |
| 2026-04-26 11:38 | 23.07857 | 72.63453 | 189 ft | 0 kts | 135° |
| 2026-04-26 11:42 | 23.07966 | 72.63697 | 192 ft | 16 kts | 45° |
| 2026-04-26 11:43 | 23.08056 | 72.63794 | 192 ft | 19 kts | 45° |
| 2026-04-26 11:43 | 23.08159 | 72.63905 | 192 ft | 22 kts | 44° |
| 2026-04-26 11:43 | 23.08278 | 72.64032 | 191 ft | 25 kts | 45° |
| 2026-04-26 11:43 | 23.08411 | 72.64172 | 192 ft | 26 kts | 44° |
| 2026-04-26 11:44 | 23.08546 | 72.64318 | 192 ft | 28 kts | 46° |
| 2026-04-26 11:44 | 23.08691 | 72.64472 | 195 ft | 29 kts | 45° |
| 2026-04-26 11:44 | 23.08783 | 72.64609 | 195 ft | 16 kts | 66° |
| 2026-04-26 11:44 | 23.08811 | 72.64595 | 195 ft | 10 kts | 189° |
| 2026-04-26 11:45 | 23.08757 | 72.64555 | 195 ft | 11 kts | 241° |
| 2026-04-26 11:45 | 23.08685 | 72.64470 | 194 ft | 31 kts | 225° |
| 2026-04-26 11:45 | 23.08357 | 72.64117 | 191 ft | 96 kts | 225° |
| 2026-04-26 11:45 | 23.07750 | 72.63471 | 189 ft | 146 kts | 225° |
| 2026-04-26 11:46 | 23.06950 | 72.62592 | 371 ft | 167 kts | 229° |
| 2026-04-26 11:46 | 23.06155 | 72.61667 | 728 ft | 176 kts | 227° |
| 2026-04-26 11:46 | 23.05221 | 72.60663 | 931 ft | 198 kts | 226° |
| 2026-04-26 11:46 | 23.04209 | 72.59593 | 1155 ft | 210 kts | 226° |
| 2026-04-26 11:47 | 23.03159 | 72.58474 | 1600 ft | 210 kts | 227° |
| 2026-04-26 11:47 | 23.02122 | 72.57335 | 1992 ft | 214 kts | 228° |
| 2026-04-26 11:47 | 23.01012 | 72.56149 | 2170 ft | 232 kts | 227° |
| 2026-04-26 11:47 | 22.99806 | 72.54895 | 2434 ft | 247 kts | 226° |
| 2026-04-26 11:48 | 22.98506 | 72.53539 | 2715 ft | 262 kts | 227° |
| 2026-04-26 11:48 | 22.97190 | 72.52156 | 3162 ft | 268 kts | 227° |
| 2026-04-26 11:48 | 22.95833 | 72.50723 | 3722 ft | 270 kts | 226° |
| 2026-04-26 11:48 | 22.94324 | 72.49505 | 4260 ft | 276 kts | 204° |
| 2026-04-26 11:49 | 22.92425 | 72.49181 | 4867 ft | 279 kts | 183° |
| 2026-04-26 11:49 | 22.90479 | 72.49229 | 5470 ft | 281 kts | 180° |
| 2026-04-26 11:49 | 22.88530 | 72.49305 | 6068 ft | 282 kts | 181° |
| 2026-04-26 11:49 | 22.86568 | 72.49352 | 6671 ft | 283 kts | 181° |
| 2026-04-26 11:50 | 22.84565 | 72.49371 | 7272 ft | 285 kts | 182° |
| 2026-04-26 11:50 | 22.82573 | 72.49369 | 7866 ft | 287 kts | 182° |
| 2026-04-26 11:50 | 22.80569 | 72.49355 | 8470 ft | 290 kts | 182° |
| 2026-04-26 11:50 | 22.78567 | 72.49333 | 9079 ft | 292 kts | 182° |
| 2026-04-26 11:51 | 22.76529 | 72.49306 | 9697 ft | 294 kts | 182° |
| 2026-04-26 11:51 | 22.74447 | 72.49274 | 10181 ft | 302 kts | 182° |
| 2026-04-26 11:51 | 22.72285 | 72.49239 | 10449 ft | 317 kts | 182° |
| 2026-04-26 11:51 | 22.70041 | 72.49201 | 10714 ft | 332 kts | 182° |
| 2026-04-26 11:52 | 22.67670 | 72.49161 | 11156 ft | 340 kts | 181° |
| 2026-04-26 11:52 | 22.65265 | 72.49121 | 11460 ft | 352 kts | 181° |
| 2026-04-26 11:52 | 22.62912 | 72.49084 | 11689 ft | 365 kts | 181° |
| 2026-04-26 11:52 | 22.60351 | 72.49043 | 11913 ft | 377 kts | 181° |
| 2026-04-26 11:53 | 22.57654 | 72.48998 | 12126 ft | 390 kts | 181° |
| 2026-04-26 11:53 | 22.54913 | 72.48951 | 12379 ft | 399 kts | 181° |
| 2026-04-26 11:53 | 22.52095 | 72.48903 | 12812 ft | 403 kts | 181° |
| 2026-04-26 11:54 | 22.46442 | 72.48804 | 13755 ft | 408 kts | 181° |
| 2026-04-26 11:54 | 22.43610 | 72.48756 | 14175 ft | 411 kts | 180° |
| 2026-04-26 11:54 | 22.40713 | 72.48708 | 14586 ft | 415 kts | 180° |
| 2026-04-26 11:54 | 22.37817 | 72.48660 | 14995 ft | 418 kts | 180° |
| 2026-04-26 11:55 | 22.34890 | 72.48611 | 15397 ft | 421 kts | 180° |
| 2026-04-26 11:55 | 22.31938 | 72.48563 | 15780 ft | 424 kts | 180° |
| 2026-04-26 11:55 | 22.28988 | 72.48513 | 16150 ft | 428 kts | 180° |
| 2026-04-26 11:55 | 22.25982 | 72.48463 | 16520 ft | 431 kts | 180° |
| 2026-04-26 11:56 | 22.22966 | 72.48412 | 16871 ft | 434 kts | 180° |
| 2026-04-26 11:56 | 22.19962 | 72.48363 | 17226 ft | 437 kts | 180° |
| 2026-04-26 11:56 | 22.16913 | 72.48312 | 17595 ft | 439 kts | 180° |
| 2026-04-26 11:56 | 22.13811 | 72.48261 | 17965 ft | 441 kts | 180° |
| 2026-04-26 11:57 | 22.10764 | 72.48211 | 18307 ft | 443 kts | 180° |
| 2026-04-26 11:57 | 22.07669 | 72.48159 | 18666 ft | 445 kts | 180° |
| 2026-04-26 11:57 | 22.04548 | 72.48106 | 19003 ft | 447 kts | 180° |
| 2026-04-26 11:57 | 22.01418 | 72.48052 | 19331 ft | 450 kts | 180° |
| 2026-04-26 11:58 | 21.98266 | 72.47999 | 19666 ft | 452 kts | 180° |
| 2026-04-26 11:58 | 21.95121 | 72.47946 | 19996 ft | 454 kts | 180° |
| 2026-04-26 11:58 | 21.91925 | 72.47893 | 20331 ft | 456 kts | 180° |
| 2026-04-26 11:58 | 21.88767 | 72.47840 | 20641 ft | 458 kts | 180° |
| 2026-04-26 11:59 | 21.85555 | 72.47785 | 20968 ft | 460 kts | 179° |
| 2026-04-26 11:59 | 21.82327 | 72.47732 | 21291 ft | 462 kts | 180° |
| 2026-04-26 11:59 | 21.79130 | 72.47678 | 21606 ft | 464 kts | 180° |
| 2026-04-26 11:59 | 21.75877 | 72.47624 | 21936 ft | 465 kts | 179° |
| 2026-04-26 12:00 | 21.72639 | 72.47570 | 22234 ft | 467 kts | 179° |
| 2026-04-26 12:00 | 21.69383 | 72.47515 | 22519 ft | 469 kts | 180° |
| 2026-04-26 12:00 | 21.66080 | 72.47460 | 22800 ft | 471 kts | 179° |
| 2026-04-26 12:00 | 21.62813 | 72.47405 | 23059 ft | 473 kts | 179° |
| 2026-04-26 12:01 | 21.59512 | 72.47469 | 23295 ft | 474 kts | 173° |
| 2026-04-26 12:01 | 21.56281 | 72.48170 | 23551 ft | 474 kts | 164° |
| 2026-04-26 12:01 | 21.53105 | 72.49137 | 23807 ft | 476 kts | 162° |
| 2026-04-26 12:01 | 21.49909 | 72.50157 | 24014 ft | 479 kts | 162° |
| 2026-04-26 12:02 | 21.46678 | 72.51166 | 24242 ft | 481 kts | 163° |
| 2026-04-26 12:02 | 21.43439 | 72.52145 | 24580 ft | 481 kts | 164° |
| 2026-04-26 12:02 | 21.40209 | 72.53101 | 24974 ft | 479 kts | 165° |
| 2026-04-26 12:02 | 21.36997 | 72.54032 | 25366 ft | 478 kts | 165° |
| 2026-04-26 12:03 | 21.33774 | 72.54958 | 25739 ft | 477 kts | 166° |
| 2026-04-26 12:03 | 21.30602 | 72.55862 | 26151 ft | 474 kts | 166° |
| 2026-04-26 12:03 | 21.27410 | 72.56768 | 26553 ft | 473 kts | 166° |
| 2026-04-26 12:03 | 21.24238 | 72.57666 | 26937 ft | 471 kts | 166° |
| 2026-04-26 12:04 | 21.21066 | 72.58563 | 27335 ft | 470 kts | 167° |
| 2026-04-26 12:04 | 21.17873 | 72.59465 | 27716 ft | 469 kts | 167° |
| 2026-04-26 12:04 | 21.14726 | 72.60355 | 28089 ft | 469 kts | 167° |
| 2026-04-26 12:04 | 21.11556 | 72.61249 | 28498 ft | 467 kts | 167° |
| 2026-04-26 12:05 | 21.08437 | 72.62128 | 28864 ft | 466 kts | 167° |
| 2026-04-26 12:05 | 21.05269 | 72.63023 | 29246 ft | 465 kts | 168° |
| 2026-04-26 12:05 | 21.02164 | 72.63899 | 29650 ft | 463 kts | 168° |
| 2026-04-26 12:05 | 20.99061 | 72.64776 | 30059 ft | 461 kts | 168° |
| 2026-04-26 12:06 | 20.95958 | 72.65651 | 30475 ft | 459 kts | 169° |
| 2026-04-26 12:06 | 20.92857 | 72.66524 | 30691 ft | 457 kts | 169° |
| 2026-04-26 12:06 | 20.89791 | 72.67384 | 30697 ft | 456 kts | 169° |
| 2026-04-26 12:07 | 20.83651 | 72.69099 | 30699 ft | 455 kts | 169° |
| 2026-04-26 12:07 | 20.77508 | 72.70818 | 30701 ft | 455 kts | 169° |
| 2026-04-26 12:08 | 20.71389 | 72.72533 | 30699 ft | 455 kts | 169° |
| 2026-04-26 12:08 | 20.65257 | 72.74252 | 30696 ft | 455 kts | 169° |
| 2026-04-26 12:09 | 20.59111 | 72.75975 | 30697 ft | 454 kts | 170° |
| 2026-04-26 12:09 | 20.53014 | 72.77683 | 30707 ft | 453 kts | 170° |
| 2026-04-26 12:10 | 20.46879 | 72.79398 | 30712 ft | 453 kts | 170° |
| 2026-04-26 12:10 | 20.40793 | 72.81098 | 30713 ft | 452 kts | 170° |
| 2026-04-26 12:11 | 20.34698 | 72.82802 | 30715 ft | 452 kts | 170° |
| 2026-04-26 12:11 | 20.28642 | 72.84494 | 30680 ft | 448 kts | 171° |
| 2026-04-26 12:11 | 20.25634 | 72.85335 | 30410 ft | 441 kts | 171° |
| 2026-04-26 12:12 | 20.22646 | 72.86166 | 29998 ft | 441 kts | 171° |
| 2026-04-26 12:12 | 20.19655 | 72.86996 | 29373 ft | 443 kts | 171° |
| 2026-04-26 12:12 | 20.16691 | 72.87820 | 28641 ft | 444 kts | 170° |
| 2026-04-26 12:12 | 20.14693 | 72.88374 | 28123 ft | 445 kts | 170° |
| 2026-04-26 12:13 | 20.10688 | 72.89484 | 27054 ft | 446 kts | 169° |
| 2026-04-26 12:13 | 20.07654 | 72.90324 | 26211 ft | 448 kts | 169° |
| 2026-04-26 12:13 | 20.04650 | 72.91157 | 25318 ft | 451 kts | 168° |
| 2026-04-26 12:13 | 20.01610 | 72.91998 | 24399 ft | 454 kts | 168° |
| 2026-04-26 12:14 | 19.98534 | 72.92851 | 23434 ft | 457 kts | 167° |
| 2026-04-26 12:14 | 19.95446 | 72.93709 | 22500 ft | 458 kts | 166° |
| 2026-04-26 12:14 | 19.92368 | 72.94567 | 21901 ft | 451 kts | 166° |
| 2026-04-26 12:14 | 19.89353 | 72.95410 | 21317 ft | 443 kts | 166° |
| 2026-04-26 12:15 | 19.86382 | 72.96235 | 20742 ft | 437 kts | 166° |
| 2026-04-26 12:15 | 19.83486 | 72.97037 | 20170 ft | 430 kts | 166° |
| 2026-04-26 12:15 | 19.80613 | 72.97832 | 19601 ft | 424 kts | 165° |
| 2026-04-26 12:15 | 19.77758 | 72.98621 | 19031 ft | 418 kts | 165° |
| 2026-04-26 12:16 | 19.74958 | 72.99395 | 18473 ft | 413 kts | 165° |
| 2026-04-26 12:16 | 19.72189 | 73.00160 | 17910 ft | 408 kts | 164° |
| 2026-04-26 12:16 | 19.69452 | 73.00917 | 17363 ft | 404 kts | 164° |
| 2026-04-26 12:16 | 19.66750 | 73.01666 | 16803 ft | 399 kts | 164° |
| 2026-04-26 12:17 | 19.64088 | 73.02404 | 16245 ft | 395 kts | 163° |
| 2026-04-26 12:17 | 19.61414 | 73.03146 | 15675 ft | 391 kts | 163° |
| 2026-04-26 12:17 | 19.58791 | 73.03872 | 15160 ft | 388 kts | 163° |
| 2026-04-26 12:17 | 19.56180 | 73.04594 | 14601 ft | 386 kts | 163° |
| 2026-04-26 12:18 | 19.53600 | 73.05308 | 14032 ft | 382 kts | 163° |
| 2026-04-26 12:18 | 19.51041 | 73.06016 | 13487 ft | 379 kts | 163° |
| 2026-04-26 12:18 | 19.48477 | 73.06724 | 12937 ft | 375 kts | 163° |
| 2026-04-26 12:18 | 19.45966 | 73.07418 | 12389 ft | 372 kts | 163° |
| 2026-04-26 12:19 | 19.43489 | 73.08102 | 12038 ft | 363 kts | 162° |
| 2026-04-26 12:19 | 19.41070 | 73.08768 | 11821 ft | 350 kts | 162° |
| 2026-04-26 12:19 | 19.38763 | 73.09404 | 11640 ft | 338 kts | 162° |
| 2026-04-26 12:19 | 19.36513 | 73.10026 | 11459 ft | 326 kts | 162° |
| 2026-04-26 12:20 | 19.34375 | 73.10615 | 11304 ft | 314 kts | 162° |
| 2026-04-26 12:20 | 19.32277 | 73.11192 | 11160 ft | 302 kts | 162° |
| 2026-04-26 12:20 | 19.30273 | 73.11745 | 11034 ft | 290 kts | 162° |
| 2026-04-26 12:20 | 19.28358 | 73.12273 | 10911 ft | 278 kts | 162° |
| 2026-04-26 12:21 | 19.26518 | 73.12779 | 10843 ft | 265 kts | 161° |
| 2026-04-26 12:21 | 19.24735 | 73.13271 | 10782 ft | 261 kts | 162° |
| 2026-04-26 12:21 | 19.23026 | 73.13894 | 10738 ft | 256 kts | 144° |
| 2026-04-26 12:21 | 19.21774 | 73.15175 | 10737 ft | 248 kts | 117° |
| 2026-04-26 12:22 | 19.21217 | 73.16861 | 10709 ft | 241 kts | 94° |
| 2026-04-26 12:22 | 19.21194 | 73.18609 | 10376 ft | 242 kts | 88° |
| 2026-04-26 12:22 | 19.21234 | 73.20422 | 9740 ft | 254 kts | 87° |
| 2026-04-26 12:22 | 19.21272 | 73.22319 | 9093 ft | 266 kts | 87° |
| 2026-04-26 12:23 | 19.21305 | 73.24284 | 8505 ft | 272 kts | 87° |
| 2026-04-26 12:23 | 19.21332 | 73.26304 | 7893 ft | 280 kts | 87° |
| 2026-04-26 12:23 | 19.21356 | 73.28370 | 7440 ft | 281 kts | 87° |
| 2026-04-26 12:23 | 19.21378 | 73.30444 | 7026 ft | 280 kts | 87° |
| 2026-04-26 12:24 | 19.21396 | 73.32456 | 6813 ft | 272 kts | 87° |
| 2026-04-26 12:24 | 19.21413 | 73.34421 | 6639 ft | 263 kts | 87° |
| 2026-04-26 12:24 | 19.21429 | 73.36349 | 6383 ft | 259 kts | 87° |
| 2026-04-26 12:25 | 19.20741 | 73.40009 | 5640 ft | 265 kts | 124° |
| 2026-04-26 12:25 | 19.19317 | 73.41237 | 5406 ft | 260 kts | 156° |
| 2026-04-26 12:25 | 19.17599 | 73.41553 | 5246 ft | 250 kts | 187° |
| 2026-04-26 12:25 | 19.15996 | 73.40931 | 5011 ft | 241 kts | 219° |
| 2026-04-26 12:26 | 19.14865 | 73.39668 | 4707 ft | 236 kts | 237° |
| 2026-04-26 12:26 | 19.13960 | 73.38241 | 4385 ft | 234 kts | 245° |
| 2026-04-26 12:26 | 19.13244 | 73.36700 | 4084 ft | 232 kts | 250° |
| 2026-04-26 12:26 | 19.12739 | 73.35092 | 3780 ft | 227 kts | 264° |
| 2026-04-26 12:27 | 19.12542 | 73.33453 | 3511 ft | 222 kts | 268° |
| 2026-04-26 12:27 | 19.12396 | 73.31881 | 3343 ft | 211 kts | 268° |
| 2026-04-26 12:27 | 19.12239 | 73.30318 | 3368 ft | 219 kts | 268° |
| 2026-04-26 12:27 | 19.12057 | 73.28683 | 3410 ft | 222 kts | 267° |
| 2026-04-26 12:28 | 19.11859 | 73.27061 | 3406 ft | 223 kts | 266° |
| 2026-04-26 12:28 | 19.11654 | 73.25440 | 3363 ft | 224 kts | 266° |
| 2026-04-26 12:28 | 19.11441 | 73.23815 | 3242 ft | 223 kts | 266° |
| 2026-04-26 12:28 | 19.11224 | 73.22199 | 3136 ft | 221 kts | 266° |
| 2026-04-26 12:29 | 19.11010 | 73.20602 | 3039 ft | 219 kts | 266° |
| 2026-04-26 12:29 | 19.10793 | 73.18996 | 2945 ft | 219 kts | 266° |
| 2026-04-26 12:29 | 19.10315 | 73.15810 | 2912 ft | 221 kts | 259° |
| 2026-04-26 12:30 | 19.09828 | 73.14246 | 2905 ft | 223 kts | 255° |
| 2026-04-26 12:30 | 19.09408 | 73.12716 | 2878 ft | 208 kts | 262° |
| 2026-04-26 12:30 | 19.09226 | 73.11220 | 2911 ft | 202 kts | 270° |
| 2026-04-26 12:31 | 19.09176 | 73.08264 | 2905 ft | 202 kts | 274° |
| 2026-04-26 12:31 | 19.09165 | 73.06797 | 2882 ft | 191 kts | 274° |
| 2026-04-26 12:31 | 19.09147 | 73.05425 | 2884 ft | 186 kts | 273° |
| 2026-04-26 12:31 | 19.09128 | 73.04054 | 2863 ft | 186 kts | 273° |
| 2026-04-26 12:32 | 19.09107 | 73.02673 | 2658 ft | 186 kts | 273° |
| 2026-04-26 12:32 | 19.09084 | 73.01331 | 2417 ft | 176 kts | 273° |
| 2026-04-26 12:32 | 19.09044 | 72.98890 | 1983 ft | 162 kts | 273° |
| 2026-04-26 12:33 | 19.09026 | 72.97762 | 1761 ft | 146 kts | 274° |
| 2026-04-26 12:33 | 19.09010 | 72.96716 | 1582 ft | 142 kts | 273° |
| 2026-04-26 12:33 | 19.08997 | 72.95661 | 1411 ft | 142 kts | 272° |
| 2026-04-26 12:33 | 19.08982 | 72.94629 | 1243 ft | 141 kts | 272° |
| 2026-04-26 12:34 | 19.08968 | 72.93580 | 1071 ft | 141 kts | 271° |
| 2026-04-26 12:34 | 19.08952 | 72.92542 | 898 ft | 141 kts | 271° |
| 2026-04-26 12:34 | 19.08937 | 72.91509 | 725 ft | 140 kts | 270° |
| 2026-04-26 12:34 | 19.08923 | 72.90478 | 552 ft | 140 kts | 270° |
| 2026-04-26 12:35 | 19.08909 | 72.89448 | 377 ft | 140 kts | 269° |
| 2026-04-26 12:35 | 19.08904 | 72.88418 | 202 ft | 139 kts | 269° |
| 2026-04-26 12:35 | 19.08892 | 72.87402 | 35 ft | 135 kts | 269° |
| 2026-04-26 12:35 | 19.08874 | 72.86513 | 33 ft | 99 kts | 265° |
| 2026-04-26 12:36 | 19.08859 | 72.85971 | 28 ft | 51 kts | 272° |
| 2026-04-26 12:36 | 19.08865 | 72.85725 | 27 ft | 24 kts | 279° |
| 2026-04-26 12:36 | 19.08920 | 72.85561 | 26 ft | 20 kts | 294° |
| 2026-04-26 12:36 | 19.08972 | 72.85443 | 27 ft | 14 kts | 297° |
| 2026-04-26 12:37 | 19.09052 | 72.85406 | 29 ft | 10 kts | 5° |
| 2026-04-26 12:37 | 19.09123 | 72.85412 | 30 ft | 9 kts | 356° |
| 2026-04-26 12:37 | 19.09145 | 72.85411 | 30 ft | 0 kts | 360° |